sensor_id;sensor_type;location;lat;lon;timestamp;P1;durP1;ratioP1;P2;durP2;ratioP2
21593;SDS011;10959;51.328;7.322;2023-01-15T00:01:38;3.13;;;0.87;;
21593;SDS011;10959;51.328;7.322;2023-01-15T00:04:06;5.10;;;0.90;;
21593;SDS011;10959;51.328;7.322;2023-01-15T00:06:34;2.23;;;0.80;;
21593;SDS011;10959;51.328;7.322;2023-01-15T00:09:02;2.57;;;1.00;;
21593;SDS011;10959;51.328;7.322;2023-01-15T00:11:29;2.07;;;0.90;;
21593;SDS011;10959;51.328;7.322;2023-01-15T00:13:55;4.30;;;1.20;;
21593;SDS011;10959;51.328;7.322;2023-01-15T00:16:22;4.43;;;1.00;;
21593;SDS011;10959;51.328;7.322;2023-01-15T00:18:51;2.30;;;1.00;;
21593;SDS011;10959;51.328;7.322;2023-01-15T00:21:19;2.20;;;0.90;;
21593;SDS011;10959;51.328;7.322;2023-01-15T00:23:46;3.10;;;1.50;;
21593;SDS011;10959;51.328;7.322;2023-01-15T00:26:31;3.50;;;1.30;;
21593;SDS011;10959;51.328;7.322;2023-01-15T00:29:16;2.40;;;1.20;;
21593;SDS011;10959;51.328;7.322;2023-01-15T00:31:44;2.83;;;1.53;;
21593;SDS011;10959;51.328;7.322;2023-01-15T00:34:18;2.80;;;1.70;;
21593;SDS011;10959;51.328;7.322;2023-01-15T00:36:45;5.13;;;2.10;;
21593;SDS011;10959;51.328;7.322;2023-01-15T00:39:12;4.50;;;2.23;;
21593;SDS011;10959;51.328;7.322;2023-01-15T00:41:38;4.80;;;1.90;;
21593;SDS011;10959;51.328;7.322;2023-01-15T00:44:05;5.60;;;1.90;;
21593;SDS011;10959;51.328;7.322;2023-01-15T00:46:31;2.90;;;1.50;;
21593;SDS011;10959;51.328;7.322;2023-01-15T00:48:58;4.20;;;1.63;;
21593;SDS011;10959;51.328;7.322;2023-01-15T00:51:26;5.03;;;1.70;;
21593;SDS011;10959;51.328;7.322;2023-01-15T00:53:52;2.23;;;1.63;;
21593;SDS011;10959;51.328;7.322;2023-01-15T00:56:19;3.37;;;1.70;;
21593;SDS011;10959;51.328;7.322;2023-01-15T00:58:45;1.20;;;0.90;;
21593;SDS011;10959;51.328;7.322;2023-01-15T01:01:12;2.57;;;1.20;;
21593;SDS011;10959;51.328;7.322;2023-01-15T01:03:39;2.23;;;0.90;;
21593;SDS011;10959;51.328;7.322;2023-01-15T01:06:06;3.43;;;0.87;;
21593;SDS011;10959;51.328;7.322;2023-01-15T01:08:35;1.10;;;0.80;;
21593;SDS011;10959;51.328;7.322;2023-01-15T01:11:02;2.07;;;1.00;;
21593;SDS011;10959;51.328;7.322;2023-01-15T01:13:30;1.23;;;0.60;;
21593;SDS011;10959;51.328;7.322;2023-01-15T01:15:57;1.90;;;0.97;;
21593;SDS011;10959;51.328;7.322;2023-01-15T01:18:23;2.13;;;0.70;;
21593;SDS011;10959;51.328;7.322;2023-01-15T01:20:50;1.43;;;0.70;;
21593;SDS011;10959;51.328;7.322;2023-01-15T01:23:17;1.60;;;0.67;;
21593;SDS011;10959;51.328;7.322;2023-01-15T01:25:45;3.23;;;0.70;;
21593;SDS011;10959;51.328;7.322;2023-01-15T01:28:11;1.30;;;0.60;;
21593;SDS011;10959;51.328;7.322;2023-01-15T01:30:38;1.53;;;1.00;;
21593;SDS011;10959;51.328;7.322;2023-01-15T01:33:05;3.27;;;0.77;;
21593;SDS011;10959;51.328;7.322;2023-01-15T01:35:31;1.50;;;0.50;;
21593;SDS011;10959;51.328;7.322;2023-01-15T01:37:58;1.23;;;0.57;;
21593;SDS011;10959;51.328;7.322;2023-01-15T01:40:25;1.90;;;0.40;;
21593;SDS011;10959;51.328;7.322;2023-01-15T01:42:53;0.70;;;0.57;;
21593;SDS011;10959;51.328;7.322;2023-01-15T01:45:21;3.03;;;0.43;;
21593;SDS011;10959;51.328;7.322;2023-01-15T01:47:50;1.07;;;0.47;;
21593;SDS011;10959;51.328;7.322;2023-01-15T01:50:21;0.33;;;0.30;;
21593;SDS011;10959;51.328;7.322;2023-01-15T01:52:48;1.17;;;0.50;;
21593;SDS011;10959;51.328;7.322;2023-01-15T01:55:19;0.83;;;0.40;;
21593;SDS011;10959;51.328;7.322;2023-01-15T01:57:48;0.70;;;0.40;;
21593;SDS011;10959;51.328;7.322;2023-01-15T02:00:18;0.97;;;0.40;;
21593;SDS011;10959;51.328;7.322;2023-01-15T02:02:45;0.87;;;0.53;;
21593;SDS011;10959;51.328;7.322;2023-01-15T02:05:15;1.13;;;0.57;;
21593;SDS011;10959;51.328;7.322;2023-01-15T02:07:50;1.70;;;0.50;;
21593;SDS011;10959;51.328;7.322;2023-01-15T02:10:17;1.07;;;0.50;;
21593;SDS011;10959;51.328;7.322;2023-01-15T02:12:45;0.60;;;0.40;;
21593;SDS011;10959;51.328;7.322;2023-01-15T02:15:21;1.67;;;0.70;;
21593;SDS011;10959;51.328;7.322;2023-01-15T02:17:54;2.77;;;0.40;;
21593;SDS011;10959;51.328;7.322;2023-01-15T02:20:28;2.07;;;0.57;;
21593;SDS011;10959;51.328;7.322;2023-01-15T02:23:03;2.27;;;0.40;;
21593;SDS011;10959;51.328;7.322;2023-01-15T02:25:44;0.93;;;0.57;;
21593;SDS011;10959;51.328;7.322;2023-01-15T02:28:24;1.67;;;0.60;;
21593;SDS011;10959;51.328;7.322;2023-01-15T02:30:55;1.07;;;0.53;;
21593;SDS011;10959;51.328;7.322;2023-01-15T02:33:25;0.97;;;0.40;;
21593;SDS011;10959;51.328;7.322;2023-01-15T02:35:58;2.40;;;0.70;;
21593;SDS011;10959;51.328;7.322;2023-01-15T02:38:27;0.60;;;0.40;;
21593;SDS011;10959;51.328;7.322;2023-01-15T02:40:57;2.97;;;0.73;;
21593;SDS011;10959;51.328;7.322;2023-01-15T02:43:28;1.20;;;0.63;;
21593;SDS011;10959;51.328;7.322;2023-01-15T02:46:01;3.03;;;0.60;;
21593;SDS011;10959;51.328;7.322;2023-01-15T02:48:31;1.03;;;0.47;;
21593;SDS011;10959;51.328;7.322;2023-01-15T02:51:02;0.97;;;0.63;;
21593;SDS011;10959;51.328;7.322;2023-01-15T02:53:32;1.20;;;0.63;;
21593;SDS011;10959;51.328;7.322;2023-01-15T02:56:04;2.50;;;0.70;;
21593;SDS011;10959;51.328;7.322;2023-01-15T02:58:36;1.30;;;0.60;;
21593;SDS011;10959;51.328;7.322;2023-01-15T03:01:05;1.40;;;0.60;;
21593;SDS011;10959;51.328;7.322;2023-01-15T03:03:37;1.80;;;0.50;;
21593;SDS011;10959;51.328;7.322;2023-01-15T03:06:09;2.73;;;0.53;;
21593;SDS011;10959;51.328;7.322;2023-01-15T03:08:39;1.60;;;0.70;;
21593;SDS011;10959;51.328;7.322;2023-01-15T03:11:07;1.47;;;0.87;;
21593;SDS011;10959;51.328;7.322;2023-01-15T03:13:40;2.00;;;0.73;;
21593;SDS011;10959;51.328;7.322;2023-01-15T03:16:13;2.27;;;0.53;;
21593;SDS011;10959;51.328;7.322;2023-01-15T03:19:03;1.60;;;0.80;;
21593;SDS011;10959;51.328;7.322;2023-01-15T03:21:38;2.27;;;1.00;;
21593;SDS011;10959;51.328;7.322;2023-01-15T03:24:13;1.90;;;0.70;;
21593;SDS011;10959;51.328;7.322;2023-01-15T03:26:44;2.23;;;0.80;;
21593;SDS011;10959;51.328;7.322;2023-01-15T03:29:12;2.97;;;0.63;;
21593;SDS011;10959;51.328;7.322;2023-01-15T03:31:39;1.43;;;0.60;;
21593;SDS011;10959;51.328;7.322;2023-01-15T03:34:06;2.70;;;0.70;;
21593;SDS011;10959;51.328;7.322;2023-01-15T03:36:32;2.73;;;0.80;;
21593;SDS011;10959;51.328;7.322;2023-01-15T03:38:59;1.63;;;0.60;;
21593;SDS011;10959;51.328;7.322;2023-01-15T03:41:28;3.73;;;0.70;;
21593;SDS011;10959;51.328;7.322;2023-01-15T03:44:03;1.10;;;0.63;;
21593;SDS011;10959;51.328;7.322;2023-01-15T03:46:44;1.87;;;0.53;;
21593;SDS011;10959;51.328;7.322;2023-01-15T03:49:20;1.37;;;0.67;;
21593;SDS011;10959;51.328;7.322;2023-01-15T03:51:58;1.10;;;0.60;;
21593;SDS011;10959;51.328;7.322;2023-01-15T03:54:32;2.00;;;0.70;;
21593;SDS011;10959;51.328;7.322;2023-01-15T03:57:10;2.97;;;0.70;;
21593;SDS011;10959;51.328;7.322;2023-01-15T03:59:42;1.70;;;0.67;;
21593;SDS011;10959;51.328;7.322;2023-01-15T04:02:16;2.63;;;0.80;;
21593;SDS011;10959;51.328;7.322;2023-01-15T04:04:46;1.70;;;0.67;;
21593;SDS011;10959;51.328;7.322;2023-01-15T04:07:14;2.13;;;0.70;;
21593;SDS011;10959;51.328;7.322;2023-01-15T04:09:41;3.43;;;1.40;;
21593;SDS011;10959;51.328;7.322;2023-01-15T04:12:08;2.00;;;0.77;;
21593;SDS011;10959;51.328;7.322;2023-01-15T04:14:35;2.97;;;0.73;;
21593;SDS011;10959;51.328;7.322;2023-01-15T04:17:02;2.60;;;0.60;;
21593;SDS011;10959;51.328;7.322;2023-01-15T04:19:29;2.83;;;0.80;;
21593;SDS011;10959;51.328;7.322;2023-01-15T04:21:56;2.33;;;0.60;;
21593;SDS011;10959;51.328;7.322;2023-01-15T04:24:23;2.70;;;0.90;;
21593;SDS011;10959;51.328;7.322;2023-01-15T04:26:50;1.13;;;0.70;;
21593;SDS011;10959;51.328;7.322;2023-01-15T04:29:16;3.07;;;1.00;;
21593;SDS011;10959;51.328;7.322;2023-01-15T04:31:43;4.70;;;0.80;;
21593;SDS011;10959;51.328;7.322;2023-01-15T04:34:09;2.10;;;0.60;;
21593;SDS011;10959;51.328;7.322;2023-01-15T04:36:37;1.13;;;0.70;;
21593;SDS011;10959;51.328;7.322;2023-01-15T04:39:04;1.70;;;0.73;;
21593;SDS011;10959;51.328;7.322;2023-01-15T04:41:30;3.50;;;0.57;;
21593;SDS011;10959;51.328;7.322;2023-01-15T04:44:15;1.60;;;0.70;;
21593;SDS011;10959;51.328;7.322;2023-01-15T04:46:42;1.77;;;0.80;;
21593;SDS011;10959;51.328;7.322;2023-01-15T04:49:10;4.57;;;0.90;;
21593;SDS011;10959;51.328;7.322;2023-01-15T04:51:39;2.97;;;0.80;;
21593;SDS011;10959;51.328;7.322;2023-01-15T04:54:07;1.70;;;0.70;;
21593;SDS011;10959;51.328;7.322;2023-01-15T04:56:36;2.50;;;0.80;;
21593;SDS011;10959;51.328;7.322;2023-01-15T04:59:04;0.97;;;0.50;;
21593;SDS011;10959;51.328;7.322;2023-01-15T05:01:31;1.70;;;0.60;;
21593;SDS011;10959;51.328;7.322;2023-01-15T05:03:58;2.67;;;0.77;;
21593;SDS011;10959;51.328;7.322;2023-01-15T05:06:25;1.87;;;0.80;;
21593;SDS011;10959;51.328;7.322;2023-01-15T05:08:53;1.77;;;0.70;;
21593;SDS011;10959;51.328;7.322;2023-01-15T05:11:20;4.87;;;0.73;;
21593;SDS011;10959;51.328;7.322;2023-01-15T05:13:46;2.90;;;0.83;;
21593;SDS011;10959;51.328;7.322;2023-01-15T05:16:13;2.57;;;0.77;;
21593;SDS011;10959;51.328;7.322;2023-01-15T05:18:42;6.37;;;0.87;;
21593;SDS011;10959;51.328;7.322;2023-01-15T05:21:12;4.90;;;1.00;;
21593;SDS011;10959;51.328;7.322;2023-01-15T05:23:40;3.23;;;0.90;;
21593;SDS011;10959;51.328;7.322;2023-01-15T05:26:07;2.63;;;0.80;;
21593;SDS011;10959;51.328;7.322;2023-01-15T05:28:34;4.10;;;0.70;;
21593;SDS011;10959;51.328;7.322;2023-01-15T05:31:04;3.47;;;0.90;;
21593;SDS011;10959;51.328;7.322;2023-01-15T05:33:32;2.63;;;0.70;;
21593;SDS011;10959;51.328;7.322;2023-01-15T05:35:59;3.10;;;1.00;;
21593;SDS011;10959;51.328;7.322;2023-01-15T05:38:26;3.20;;;1.23;;
21593;SDS011;10959;51.328;7.322;2023-01-15T05:40:53;3.97;;;1.00;;
21593;SDS011;10959;51.328;7.322;2023-01-15T05:43:21;5.53;;;0.90;;
21593;SDS011;10959;51.328;7.322;2023-01-15T05:45:47;2.93;;;1.07;;
21593;SDS011;10959;51.328;7.322;2023-01-15T05:48:14;4.87;;;1.10;;
21593;SDS011;10959;51.328;7.322;2023-01-15T05:50:40;5.33;;;1.00;;
21593;SDS011;10959;51.328;7.322;2023-01-15T05:53:07;2.13;;;0.97;;
21593;SDS011;10959;51.328;7.322;2023-01-15T05:55:33;3.27;;;1.37;;
21593;SDS011;10959;51.328;7.322;2023-01-15T05:58:00;6.47;;;1.00;;
21593;SDS011;10959;51.328;7.322;2023-01-15T06:00:28;4.03;;;0.87;;
21593;SDS011;10959;51.328;7.322;2023-01-15T06:02:54;5.47;;;1.33;;
21593;SDS011;10959;51.328;7.322;2023-01-15T06:05:21;4.43;;;1.40;;
21593;SDS011;10959;51.328;7.322;2023-01-15T06:07:47;6.23;;;1.60;;
21593;SDS011;10959;51.328;7.322;2023-01-15T06:10:16;5.20;;;1.27;;
21593;SDS011;10959;51.328;7.322;2023-01-15T06:12:43;3.40;;;1.10;;
21593;SDS011;10959;51.328;7.322;2023-01-15T06:15:11;4.83;;;1.37;;
21593;SDS011;10959;51.328;7.322;2023-01-15T06:17:39;7.17;;;1.20;;
21593;SDS011;10959;51.328;7.322;2023-01-15T06:20:06;5.40;;;1.20;;
21593;SDS011;10959;51.328;7.322;2023-01-15T06:22:33;2.67;;;0.90;;
21593;SDS011;10959;51.328;7.322;2023-01-15T06:24:59;5.00;;;1.33;;
21593;SDS011;10959;51.328;7.322;2023-01-15T06:27:26;5.57;;;1.50;;
21593;SDS011;10959;51.328;7.322;2023-01-15T06:29:53;4.23;;;1.27;;
21593;SDS011;10959;51.328;7.322;2023-01-15T06:32:21;4.03;;;1.40;;
21593;SDS011;10959;51.328;7.322;2023-01-15T06:34:49;5.90;;;1.60;;
21593;SDS011;10959;51.328;7.322;2023-01-15T06:37:16;3.03;;;1.10;;
21593;SDS011;10959;51.328;7.322;2023-01-15T06:39:42;4.47;;;1.27;;
21593;SDS011;10959;51.328;7.322;2023-01-15T06:42:09;6.73;;;1.80;;
21593;SDS011;10959;51.328;7.322;2023-01-15T06:45:01;5.17;;;1.30;;
21593;SDS011;10959;51.328;7.322;2023-01-15T06:47:46;2.50;;;0.90;;
21593;SDS011;10959;51.328;7.322;2023-01-15T06:50:14;6.07;;;1.50;;
21593;SDS011;10959;51.328;7.322;2023-01-15T06:52:41;4.70;;;1.50;;
21593;SDS011;10959;51.328;7.322;2023-01-15T06:55:08;2.93;;;1.30;;
21593;SDS011;10959;51.328;7.322;2023-01-15T06:57:36;5.33;;;1.63;;
21593;SDS011;10959;51.328;7.322;2023-01-15T07:00:03;3.87;;;1.43;;
21593;SDS011;10959;51.328;7.322;2023-01-15T07:02:30;4.30;;;1.30;;
21593;SDS011;10959;51.328;7.322;2023-01-15T07:04:57;4.90;;;1.30;;
21593;SDS011;10959;51.328;7.322;2023-01-15T07:07:26;5.57;;;1.43;;
21593;SDS011;10959;51.328;7.322;2023-01-15T07:09:53;3.13;;;1.40;;
21593;SDS011;10959;51.328;7.322;2023-01-15T07:12:20;5.87;;;1.37;;
21593;SDS011;10959;51.328;7.322;2023-01-15T07:14:47;6.97;;;1.30;;
21593;SDS011;10959;51.328;7.322;2023-01-15T07:17:14;4.17;;;1.30;;
21593;SDS011;10959;51.328;7.322;2023-01-15T07:19:40;5.00;;;1.40;;
21593;SDS011;10959;51.328;7.322;2023-01-15T07:22:07;4.67;;;1.50;;
21593;SDS011;10959;51.328;7.322;2023-01-15T07:24:36;7.10;;;1.60;;
21593;SDS011;10959;51.328;7.322;2023-01-15T07:27:03;7.87;;;1.70;;
21593;SDS011;10959;51.328;7.322;2023-01-15T07:29:29;4.03;;;1.10;;
21593;SDS011;10959;51.328;7.322;2023-01-15T07:31:56;3.80;;;1.20;;
21593;SDS011;10959;51.328;7.322;2023-01-15T07:34:22;1.80;;;0.70;;
21593;SDS011;10959;51.328;7.322;2023-01-15T07:36:49;4.30;;;1.43;;
21593;SDS011;10959;51.328;7.322;2023-01-15T07:39:15;3.03;;;1.37;;
21593;SDS011;10959;51.328;7.322;2023-01-15T07:41:43;4.10;;;1.37;;
21593;SDS011;10959;51.328;7.322;2023-01-15T07:44:27;5.27;;;1.30;;
21593;SDS011;10959;51.328;7.322;2023-01-15T07:47:14;3.80;;;1.40;;
21593;SDS011;10959;51.328;7.322;2023-01-15T07:50:00;1.87;;;1.10;;
21593;SDS011;10959;51.328;7.322;2023-01-15T07:52:27;3.33;;;1.07;;
21593;SDS011;10959;51.328;7.322;2023-01-15T07:54:54;3.90;;;1.40;;
21593;SDS011;10959;51.328;7.322;2023-01-15T07:57:22;2.77;;;1.27;;
21593;SDS011;10959;51.328;7.322;2023-01-15T07:59:49;3.47;;;1.10;;
21593;SDS011;10959;51.328;7.322;2023-01-15T08:02:16;5.47;;;1.20;;
21593;SDS011;10959;51.328;7.322;2023-01-15T08:04:42;4.20;;;1.63;;
21593;SDS011;10959;51.328;7.322;2023-01-15T08:07:09;4.80;;;1.60;;
21593;SDS011;10959;51.328;7.322;2023-01-15T08:09:36;3.30;;;1.10;;
21593;SDS011;10959;51.328;7.322;2023-01-15T08:12:03;5.37;;;1.33;;
21593;SDS011;10959;51.328;7.322;2023-01-15T08:14:48;4.10;;;0.97;;
21593;SDS011;10959;51.328;7.322;2023-01-15T08:17:33;2.77;;;1.23;;
21593;SDS011;10959;51.328;7.322;2023-01-15T08:20:00;2.83;;;1.20;;
21593;SDS011;10959;51.328;7.322;2023-01-15T08:22:27;4.97;;;1.30;;
21593;SDS011;10959;51.328;7.322;2023-01-15T08:24:54;3.80;;;1.40;;
21593;SDS011;10959;51.328;7.322;2023-01-15T08:27:20;3.77;;;1.30;;
21593;SDS011;10959;51.328;7.322;2023-01-15T08:29:46;4.60;;;1.70;;
21593;SDS011;10959;51.328;7.322;2023-01-15T08:32:15;3.17;;;1.33;;
21593;SDS011;10959;51.328;7.322;2023-01-15T08:34:41;5.70;;;1.37;;
21593;SDS011;10959;51.328;7.322;2023-01-15T08:37:08;4.23;;;1.50;;
21593;SDS011;10959;51.328;7.322;2023-01-15T08:39:34;4.17;;;1.23;;
21593;SDS011;10959;51.328;7.322;2023-01-15T08:42:01;6.60;;;1.47;;
21593;SDS011;10959;51.328;7.322;2023-01-15T08:44:27;5.93;;;1.50;;
21593;SDS011;10959;51.328;7.322;2023-01-15T08:46:55;3.70;;;1.10;;
21593;SDS011;10959;51.328;7.322;2023-01-15T08:49:22;4.67;;;1.60;;
21593;SDS011;10959;51.328;7.322;2023-01-15T08:51:48;5.13;;;1.43;;
21593;SDS011;10959;51.328;7.322;2023-01-15T08:54:16;3.33;;;1.27;;
21593;SDS011;10959;51.328;7.322;2023-01-15T08:56:43;2.33;;;1.20;;
21593;SDS011;10959;51.328;7.322;2023-01-15T08:59:10;4.03;;;1.40;;
21593;SDS011;10959;51.328;7.322;2023-01-15T09:01:36;4.63;;;1.10;;
21593;SDS011;10959;51.328;7.322;2023-01-15T09:04:04;3.67;;;1.00;;
21593;SDS011;10959;51.328;7.322;2023-01-15T09:06:31;4.03;;;1.20;;
21593;SDS011;10959;51.328;7.322;2023-01-15T09:08:58;1.90;;;1.10;;
21593;SDS011;10959;51.328;7.322;2023-01-15T09:11:24;3.77;;;1.80;;
21593;SDS011;10959;51.328;7.322;2023-01-15T09:13:51;2.93;;;1.50;;
21593;SDS011;10959;51.328;7.322;2023-01-15T09:16:18;1.53;;;0.80;;
21593;SDS011;10959;51.328;7.322;2023-01-15T09:18:45;2.47;;;0.93;;
21593;SDS011;10959;51.328;7.322;2023-01-15T09:21:13;2.70;;;1.10;;
21593;SDS011;10959;51.328;7.322;2023-01-15T09:23:39;4.63;;;1.30;;
21593;SDS011;10959;51.328;7.322;2023-01-15T09:26:06;4.90;;;1.90;;
21593;SDS011;10959;51.328;7.322;2023-01-15T09:28:33;3.67;;;1.23;;
21593;SDS011;10959;51.328;7.322;2023-01-15T09:31:00;3.77;;;1.30;;
21593;SDS011;10959;51.328;7.322;2023-01-15T09:33:27;3.33;;;1.50;;
21593;SDS011;10959;51.328;7.322;2023-01-15T09:35:53;5.10;;;1.27;;
21593;SDS011;10959;51.328;7.322;2023-01-15T09:38:21;2.53;;;1.00;;
21593;SDS011;10959;51.328;7.322;2023-01-15T09:40:48;5.57;;;1.30;;
21593;SDS011;10959;51.328;7.322;2023-01-15T09:43:19;2.87;;;1.10;;
21593;SDS011;10959;51.328;7.322;2023-01-15T09:45:56;3.00;;;0.83;;
21593;SDS011;10959;51.328;7.322;2023-01-15T09:48:30;4.90;;;1.60;;
21593;SDS011;10959;51.328;7.322;2023-01-15T09:51:10;4.93;;;1.10;;
21593;SDS011;10959;51.328;7.322;2023-01-15T09:53:51;2.67;;;1.10;;
21593;SDS011;10959;51.328;7.322;2023-01-15T09:56:29;2.73;;;1.00;;
21593;SDS011;10959;51.328;7.322;2023-01-15T09:58:59;2.70;;;1.10;;
21593;SDS011;10959;51.328;7.322;2023-01-15T10:01:30;4.27;;;1.03;;
21593;SDS011;10959;51.328;7.322;2023-01-15T10:04:00;3.23;;;1.17;;
21593;SDS011;10959;51.328;7.322;2023-01-15T10:06:32;3.53;;;1.27;;
21593;SDS011;10959;51.328;7.322;2023-01-15T10:09:10;2.50;;;1.00;;
21593;SDS011;10959;51.328;7.322;2023-01-15T10:11:42;2.90;;;1.77;;
21593;SDS011;10959;51.328;7.322;2023-01-15T10:14:31;2.87;;;1.33;;
21593;SDS011;10959;51.328;7.322;2023-01-15T10:17:03;8.40;;;1.80;;
21593;SDS011;10959;51.328;7.322;2023-01-15T10:19:42;3.80;;;1.30;;
21593;SDS011;10959;51.328;7.322;2023-01-15T10:22:10;3.13;;;1.10;;
21593;SDS011;10959;51.328;7.322;2023-01-15T10:24:46;3.73;;;1.20;;
21593;SDS011;10959;51.328;7.322;2023-01-15T10:27:21;6.07;;;1.50;;
21593;SDS011;10959;51.328;7.322;2023-01-15T10:29:51;2.83;;;1.23;;
21593;SDS011;10959;51.328;7.322;2023-01-15T10:32:26;6.53;;;1.40;;
21593;SDS011;10959;51.328;7.322;2023-01-15T10:35:16;5.03;;;1.37;;
21593;SDS011;10959;51.328;7.322;2023-01-15T10:37:52;4.83;;;1.17;;
21593;SDS011;10959;51.328;7.322;2023-01-15T10:40:30;6.77;;;1.40;;
21593;SDS011;10959;51.328;7.322;2023-01-15T10:43:06;4.27;;;1.07;;
21593;SDS011;10959;51.328;7.322;2023-01-15T10:45:39;5.83;;;1.40;;
21593;SDS011;10959;51.328;7.322;2023-01-15T10:48:11;2.80;;;1.33;;
21593;SDS011;10959;51.328;7.322;2023-01-15T10:50:44;5.80;;;1.87;;
21593;SDS011;10959;51.328;7.322;2023-01-15T10:53:12;4.30;;;1.40;;
21593;SDS011;10959;51.328;7.322;2023-01-15T10:55:48;4.50;;;2.20;;
21593;SDS011;10959;51.328;7.322;2023-01-15T10:58:20;5.53;;;2.10;;
21593;SDS011;10959;51.328;7.322;2023-01-15T11:00:55;5.47;;;1.93;;
21593;SDS011;10959;51.328;7.322;2023-01-15T11:03:28;10.43;;;2.13;;
21593;SDS011;10959;51.328;7.322;2023-01-15T11:06:00;4.73;;;1.90;;
21593;SDS011;10959;51.328;7.322;2023-01-15T11:08:27;5.63;;;1.80;;
21593;SDS011;10959;51.328;7.322;2023-01-15T11:10:57;7.13;;;1.90;;
21593;SDS011;10959;51.328;7.322;2023-01-15T11:13:39;8.03;;;1.67;;
21593;SDS011;10959;51.328;7.322;2023-01-15T11:16:34;5.17;;;1.70;;
21593;SDS011;10959;51.328;7.322;2023-01-15T11:19:23;7.20;;;1.83;;
21593;SDS011;10959;51.328;7.322;2023-01-15T11:22:05;4.30;;;2.00;;
21593;SDS011;10959;51.328;7.322;2023-01-15T11:24:35;7.47;;;1.90;;
21593;SDS011;10959;51.328;7.322;2023-01-15T11:27:04;4.20;;;1.70;;
21593;SDS011;10959;51.328;7.322;2023-01-15T11:29:32;4.67;;;1.90;;
21593;SDS011;10959;51.328;7.322;2023-01-15T11:32:01;5.93;;;2.00;;
21593;SDS011;10959;51.328;7.322;2023-01-15T11:34:29;5.50;;;1.37;;
21593;SDS011;10959;51.328;7.322;2023-01-15T11:37:02;4.93;;;1.50;;
21593;SDS011;10959;51.328;7.322;2023-01-15T11:39:29;4.47;;;1.43;;
21593;SDS011;10959;51.328;7.322;2023-01-15T11:41:57;2.93;;;1.40;;
21593;SDS011;10959;51.328;7.322;2023-01-15T11:44:50;3.87;;;1.57;;
21593;SDS011;10959;51.328;7.322;2023-01-15T11:47:35;5.20;;;1.60;;
21593;SDS011;10959;51.328;7.322;2023-01-15T11:50:19;3.33;;;1.33;;
21593;SDS011;10959;51.328;7.322;2023-01-15T11:53:03;3.37;;;1.27;;
21593;SDS011;10959;51.328;7.322;2023-01-15T11:55:31;6.10;;;1.30;;
21593;SDS011;10959;51.328;7.322;2023-01-15T11:57:58;6.83;;;2.70;;
21593;SDS011;10959;51.328;7.322;2023-01-15T12:00:29;6.07;;;2.20;;
21593;SDS011;10959;51.328;7.322;2023-01-15T12:03:01;6.63;;;2.63;;
21593;SDS011;10959;51.328;7.322;2023-01-15T12:05:31;5.97;;;2.57;;
21593;SDS011;10959;51.328;7.322;2023-01-15T12:08:01;4.73;;;2.23;;
21593;SDS011;10959;51.328;7.322;2023-01-15T12:10:30;4.60;;;2.00;;
21593;SDS011;10959;51.328;7.322;2023-01-15T12:13:31;3.87;;;1.73;;
21593;SDS011;10959;51.328;7.322;2023-01-15T12:16:06;4.93;;;1.23;;
21593;SDS011;10959;51.328;7.322;2023-01-15T12:21:44;4.20;;;1.30;;
21593;SDS011;10959;51.328;7.322;2023-01-15T12:24:24;3.07;;;1.10;;
21593;SDS011;10959;51.328;7.322;2023-01-15T12:27:09;3.30;;;1.30;;
21593;SDS011;10959;51.328;7.322;2023-01-15T12:29:47;2.57;;;1.30;;
21593;SDS011;10959;51.328;7.322;2023-01-15T12:32:21;3.20;;;1.10;;
21593;SDS011;10959;51.328;7.322;2023-01-15T12:34:53;3.53;;;1.63;;
21593;SDS011;10959;51.328;7.322;2023-01-15T12:37:25;4.03;;;1.60;;
21593;SDS011;10959;51.328;7.322;2023-01-15T12:39:55;6.03;;;1.30;;
21593;SDS011;10959;51.328;7.322;2023-01-15T12:42:24;3.10;;;1.13;;
21593;SDS011;10959;51.328;7.322;2023-01-15T12:45:11;6.53;;;1.80;;
21593;SDS011;10959;51.328;7.322;2023-01-15T12:47:43;2.40;;;1.20;;
21593;SDS011;10959;51.328;7.322;2023-01-15T12:50:19;3.83;;;1.47;;
21593;SDS011;10959;51.328;7.322;2023-01-15T12:52:53;3.23;;;1.73;;
21593;SDS011;10959;51.328;7.322;2023-01-15T12:55:25;3.73;;;1.47;;
21593;SDS011;10959;51.328;7.322;2023-01-15T12:57:55;3.03;;;1.10;;
21593;SDS011;10959;51.328;7.322;2023-01-15T13:00:26;4.07;;;1.23;;
21593;SDS011;10959;51.328;7.322;2023-01-15T13:03:07;4.93;;;1.13;;
21593;SDS011;10959;51.328;7.322;2023-01-15T13:05:44;4.63;;;1.60;;
21593;SDS011;10959;51.328;7.322;2023-01-15T13:08:16;3.77;;;1.00;;
21593;SDS011;10959;51.328;7.322;2023-01-15T13:10:48;3.77;;;1.20;;
21593;SDS011;10959;51.328;7.322;2023-01-15T13:13:15;3.33;;;1.47;;
21593;SDS011;10959;51.328;7.322;2023-01-15T13:15:51;3.23;;;1.10;;
21593;SDS011;10959;51.328;7.322;2023-01-15T13:18:29;3.73;;;1.10;;
21593;SDS011;10959;51.328;7.322;2023-01-15T13:21:02;2.60;;;1.10;;
21593;SDS011;10959;51.328;7.322;2023-01-15T13:23:43;2.70;;;0.73;;
21593;SDS011;10959;51.328;7.322;2023-01-15T13:26:28;2.13;;;0.80;;
21593;SDS011;10959;51.328;7.322;2023-01-15T13:29:12;2.83;;;1.10;;
21593;SDS011;10959;51.328;7.322;2023-01-15T13:31:52;2.13;;;1.00;;
21593;SDS011;10959;51.328;7.322;2023-01-15T13:34:29;5.17;;;1.07;;
21593;SDS011;10959;51.328;7.322;2023-01-15T13:37:02;2.90;;;1.37;;
21593;SDS011;10959;51.328;7.322;2023-01-15T13:39:35;4.07;;;3.07;;
21593;SDS011;10959;51.328;7.322;2023-01-15T13:42:10;3.33;;;0.80;;
21593;SDS011;10959;51.328;7.322;2023-01-15T13:44:57;3.10;;;1.27;;
21593;SDS011;10959;51.328;7.322;2023-01-15T13:47:27;4.57;;;0.97;;
21593;SDS011;10959;51.328;7.322;2023-01-15T13:49:58;4.13;;;1.70;;
21593;SDS011;10959;51.328;7.322;2023-01-15T13:52:26;2.63;;;1.10;;
21593;SDS011;10959;51.328;7.322;2023-01-15T13:54:55;2.90;;;1.20;;
21593;SDS011;10959;51.328;7.322;2023-01-15T13:57:32;4.70;;;1.27;;
21593;SDS011;10959;51.328;7.322;2023-01-15T13:59:59;5.03;;;1.67;;
21593;SDS011;10959;51.328;7.322;2023-01-15T14:02:28;3.27;;;1.40;;
21593;SDS011;10959;51.328;7.322;2023-01-15T14:04:58;4.70;;;1.83;;
21593;SDS011;10959;51.328;7.322;2023-01-15T14:07:31;4.03;;;1.27;;
21593;SDS011;10959;51.328;7.322;2023-01-15T14:10:06;2.07;;;1.13;;
21593;SDS011;10959;51.328;7.322;2023-01-15T14:12:48;3.70;;;1.60;;
21593;SDS011;10959;51.328;7.322;2023-01-15T14:15:26;3.43;;;1.23;;
21593;SDS011;10959;51.328;7.322;2023-01-15T14:18:05;2.53;;;1.27;;
21593;SDS011;10959;51.328;7.322;2023-01-15T14:23:45;2.47;;;1.07;;
21593;SDS011;10959;51.328;7.322;2023-01-15T14:26:29;3.70;;;1.70;;
21593;SDS011;10959;51.328;7.322;2023-01-15T14:29:13;2.67;;;1.20;;
21593;SDS011;10959;51.328;7.322;2023-01-15T14:31:57;4.60;;;1.17;;
21593;SDS011;10959;51.328;7.322;2023-01-15T14:34:31;3.57;;;1.00;;
21593;SDS011;10959;51.328;7.322;2023-01-15T14:37:01;4.27;;;1.00;;
21593;SDS011;10959;51.328;7.322;2023-01-15T14:39:39;2.40;;;1.13;;
21593;SDS011;10959;51.328;7.322;2023-01-15T14:42:13;4.50;;;1.30;;
21593;SDS011;10959;51.328;7.322;2023-01-15T14:45:01;1.23;;;0.90;;
21593;SDS011;10959;51.328;7.322;2023-01-15T14:47:33;4.43;;;1.13;;
21593;SDS011;10959;51.328;7.322;2023-01-15T14:50:17;4.90;;;1.30;;
21593;SDS011;10959;51.328;7.322;2023-01-15T14:52:50;3.53;;;1.30;;
21593;SDS011;10959;51.328;7.322;2023-01-15T14:55:18;4.10;;;1.50;;
21593;SDS011;10959;51.328;7.322;2023-01-15T14:57:48;6.30;;;1.80;;
21593;SDS011;10959;51.328;7.322;2023-01-15T15:00:20;3.50;;;1.60;;
21593;SDS011;10959;51.328;7.322;2023-01-15T15:02:49;4.60;;;2.07;;
21593;SDS011;10959;51.328;7.322;2023-01-15T15:05:16;6.03;;;1.90;;
21593;SDS011;10959;51.328;7.322;2023-01-15T15:07:46;3.60;;;2.07;;
21593;SDS011;10959;51.328;7.322;2023-01-15T15:10:19;5.23;;;1.73;;
21593;SDS011;10959;51.328;7.322;2023-01-15T15:12:51;1.93;;;1.20;;
21593;SDS011;10959;51.328;7.322;2023-01-15T15:15:24;3.27;;;0.97;;
21593;SDS011;10959;51.328;7.322;2023-01-15T15:18:13;2.40;;;0.90;;